createdAt,value
2019-04-29T00:00:24.950Z,42.57
2019-04-29T00:02:56.727Z,43.67
2019-04-29T00:05:27.755Z,43.67
2019-04-29T00:07:58.260Z,43.96
2019-04-29T00:10:28.874Z,44.87
2019-04-29T00:12:59.368Z,44.66
2019-04-29T00:15:31.412Z,44.76
2019-04-29T00:18:03.601Z,44.05
2019-04-29T00:20:35.766Z,44.11
2019-04-29T00:23:06.503Z,45.17
2019-04-29T00:25:38.060Z,45.67
2019-04-29T00:28:08.543Z,45.96
2019-04-29T00:30:39.074Z,45.70
2019-04-29T00:33:09.616Z,45.67
2019-04-29T00:35:41.470Z,44.39
2019-04-29T00:38:13.631Z,44.54
2019-04-29T00:41:03.007Z,45.24
2019-04-29T00:43:35.099Z,45.56
2019-04-29T00:46:05.995Z,44.90
2019-04-29T00:48:37.501Z,43.22
2019-04-29T00:51:08.061Z,43.19
2019-04-29T00:53:39.789Z,43.02
2019-04-29T00:56:10.378Z,42.99
2019-04-29T00:58:40.891Z,43.04
2019-04-29T01:01:13.956Z,42.77
2019-04-29T01:03:44.456Z,42.90
2019-04-29T01:06:14.932Z,42.80
2019-04-29T01:08:47.383Z,42.90
2019-04-29T01:11:17.877Z,42.56
2019-04-29T01:13:48.359Z,42.71
2019-04-29T01:16:19.908Z,42.99
2019-04-29T01:18:51.473Z,42.69
2019-04-29T01:21:21.881Z,42.52
2019-04-29T01:23:52.446Z,42.46
2019-04-29T01:26:24.469Z,43.12
2019-04-29T01:28:56.583Z,43.37
2019-04-29T01:31:28.829Z,43.63
2019-04-29T01:34:01.024Z,43.69
2019-04-29T01:36:34.196Z,43.02
2019-04-29T01:39:06.336Z,43.48
2019-04-29T01:41:42.015Z,43.72
2019-04-29T01:44:14.067Z,43.74
2019-04-29T01:46:45.694Z,44.34
2019-04-29T01:49:16.353Z,44.27
2019-04-29T01:51:46.874Z,44.47
2019-04-29T01:54:17.420Z,44.16
2019-04-29T01:56:48.965Z,44.38
2019-04-29T01:59:19.712Z,45.13
2019-04-29T02:01:50.251Z,44.94
2019-04-29T02:04:20.892Z,45.25
2019-04-29T02:06:51.446Z,45.49
2019-04-29T02:09:23.573Z,45.68
2019-04-29T02:11:55.238Z,45.82
2019-04-29T02:14:26.891Z,46.78
2019-04-29T02:16:57.467Z,47.13
2019-04-29T02:19:28.132Z,46.67
2019-04-29T02:22:09.483Z,46.60
2019-04-29T02:24:41.612Z,46.36
2019-04-29T02:27:12.178Z,47.26
2019-04-29T02:29:42.733Z,47.50
2019-04-29T02:32:15.387Z,47.92
2019-04-29T02:34:46.937Z,47.81
2019-04-29T02:37:23.600Z,47.42
2019-04-29T02:40:01.785Z,47.44
2019-04-29T02:42:46.144Z,47.43
2019-04-29T02:45:18.474Z,47.16
2019-04-29T02:47:49.112Z,49.02
2019-04-29T02:50:20.092Z,48.97
2019-04-29T02:52:50.684Z,46.62
2019-04-29T02:55:22.822Z,46.44
2019-04-29T02:57:54.917Z,47.54
2019-04-29T03:00:27.087Z,46.71
2019-04-29T03:03:06.436Z,48.26
2019-04-29T03:05:39.994Z,47.90
2019-04-29T03:08:10.859Z,47.81
2019-04-29T03:10:41.429Z,46.94
2019-04-29T03:13:11.897Z,48.44
2019-04-29T03:15:43.062Z,49.41
2019-04-29T03:18:13.546Z,50.75
2019-04-29T03:20:48.419Z,50.90
2019-04-29T03:23:21.694Z,51.64
2019-04-29T03:25:52.241Z,50.29
2019-04-29T03:28:23.875Z,50.22
2019-04-29T03:30:55.457Z,50.86
2019-04-29T03:33:27.078Z,51.63
2019-04-29T03:35:57.625Z,51.97
2019-04-29T03:38:28.185Z,49.71
2019-04-29T03:40:58.722Z,46.83
2019-04-29T03:43:29.242Z,45.62
2019-04-29T03:46:00.943Z,45.42
2019-04-29T03:48:31.535Z,45.38
2019-04-29T03:51:03.175Z,47.25
2019-04-29T03:53:33.693Z,46.45
2019-04-29T03:56:05.359Z,45.09
2019-04-29T03:58:36.986Z,44.25
2019-04-29T04:01:19.539Z,43.78
2019-04-29T04:03:51.675Z,45.79
2019-04-29T04:06:30.162Z,43.99
2019-04-29T04:09:06.343Z,42.70
2019-04-29T04:11:34.402Z,45.80
2019-04-29T04:14:04.984Z,47.20
2019-04-29T04:16:53.716Z,44.59
2019-04-29T04:19:25.016Z,42.55
2019-04-29T04:21:55.789Z,41.47
2019-04-29T04:24:26.499Z,39.11
2019-04-29T04:26:57.073Z,38.20
2019-04-29T04:29:27.756Z,38.19
2019-04-29T04:32:01.941Z,37.87
2019-04-29T04:34:32.631Z,36.85
2019-04-29T04:37:04.213Z,35.87
2019-04-29T04:39:37.588Z,34.35
2019-04-29T04:42:08.219Z,33.62
2019-04-29T04:44:47.529Z,33.57
2019-04-29T04:47:18.888Z,32.79
2019-04-29T04:49:49.485Z,32.79
2019-04-29T04:52:20.291Z,33.36
2019-04-29T04:54:53.430Z,32.80
2019-04-29T04:57:25.048Z,33.55
2019-04-29T04:59:56.931Z,33.56
2019-04-29T05:02:27.710Z,34.71
2019-04-29T05:04:58.492Z,33.16
2019-04-29T05:07:29.171Z,33.17
2019-04-29T05:09:59.742Z,32.75
2019-04-29T05:12:30.603Z,31.00
2019-04-29T05:15:01.134Z,32.00
2019-04-29T05:17:32.037Z,32.26
2019-04-29T05:20:02.592Z,31.62
2019-04-29T05:22:33.225Z,30.35
2019-04-29T05:25:06.490Z,28.86
2019-04-29T05:27:36.941Z,27.45
2019-04-29T05:30:12.286Z,30.11
2019-04-29T05:32:42.889Z,30.60
2019-04-29T05:35:20.836Z,26.96
2019-04-29T05:38:03.492Z,27.62
2019-04-29T05:40:38.920Z,25.76
2019-04-29T05:43:12.220Z,24.69
2019-04-29T05:46:02.559Z,24.72
2019-04-29T05:48:33.265Z,27.28
2019-04-29T05:51:05.440Z,29.67
2019-04-29T05:53:37.698Z,29.98
2019-04-29T05:56:09.379Z,28.92
2019-04-29T05:58:41.072Z,27.47
2019-04-29T06:01:13.269Z,27.68
2019-04-29T06:03:44.591Z,29.74
2019-04-29T06:06:15.219Z,29.26
2019-04-29T06:08:45.821Z,29.77
2019-04-29T06:11:16.430Z,26.84
2019-04-29T06:13:46.989Z,28.55
2019-04-29T06:16:21.019Z,29.64
2019-04-29T06:18:59.435Z,27.88
2019-04-29T06:21:23.144Z,29.12
2019-04-29T06:23:54.716Z,30.00
2019-04-29T06:26:26.830Z,31.78
2019-04-29T06:28:57.385Z,29.70
2019-04-29T06:31:28.052Z,33.12
2019-04-29T06:34:00.745Z,34.39
2019-04-29T06:36:31.770Z,34.06
2019-04-29T06:39:02.294Z,33.64
2019-04-29T06:41:34.256Z,32.94
2019-04-29T06:44:06.237Z,34.03
2019-04-29T06:46:36.910Z,33.93
2019-04-29T06:49:10.469Z,33.59
2019-04-29T06:51:40.698Z,32.05
2019-04-29T06:54:11.319Z,32.88
2019-04-29T06:56:42.196Z,35.78
2019-04-29T06:59:13.988Z,37.68
2019-04-29T07:01:44.678Z,39.09
2019-04-29T07:04:15.222Z,41.69
2019-04-29T07:06:56.688Z,43.85
2019-04-29T07:09:17.973Z,44.45
2019-04-29T07:11:49.667Z,45.24
2019-04-29T07:14:21.353Z,46.19
2019-04-29T07:16:51.896Z,46.51
2019-04-29T07:19:26.498Z,47.70
2019-04-29T07:21:56.625Z,46.71
2019-04-29T07:24:27.252Z,46.94
2019-04-29T07:27:02.200Z,46.11
2019-04-29T07:29:32.817Z,46.28
2019-04-29T07:32:09.162Z,47.48
2019-04-29T07:34:39.551Z,46.88
2019-04-29T07:37:09.203Z,47.99
2019-04-29T07:39:39.681Z,48.83
2019-04-29T07:42:11.673Z,48.43
2019-04-29T07:44:44.442Z,48.68
2019-04-29T07:47:15.127Z,48.07
2019-04-29T07:49:47.370Z,47.30
2019-04-29T07:52:17.849Z,47.64
2019-04-29T07:54:55.079Z,49.48
2019-04-29T07:57:22.501Z,48.27
2019-04-29T07:59:56.091Z,48.12
2019-04-29T08:02:27.869Z,48.31
2019-04-29T08:04:58.472Z,46.94
2019-04-29T08:07:28.996Z,45.57
2019-04-29T08:09:59.639Z,45.01
2019-04-29T08:12:30.671Z,44.74
2019-04-29T08:15:07.721Z,44.49
2019-04-29T08:17:36.444Z,44.19
2019-04-29T08:20:10.337Z,43.15
2019-04-29T08:22:41.206Z,42.22
2019-04-29T08:25:11.724Z,42.77
2019-04-29T08:27:43.870Z,42.38
2019-04-29T08:30:16.571Z,41.35
2019-04-29T08:32:47.765Z,40.71
2019-04-29T08:35:19.242Z,41.26
2019-04-29T08:37:49.813Z,42.04
2019-04-29T08:40:20.342Z,42.59
2019-04-29T08:42:56.549Z,42.41
2019-04-29T08:45:28.702Z,42.03
2019-04-29T08:48:00.613Z,41.68
2019-04-29T08:50:33.147Z,42.99
2019-04-29T08:53:04.078Z,44.23
2019-04-29T08:55:36.527Z,44.74
2019-04-29T08:58:11.344Z,45.31
2019-04-29T09:00:39.548Z,44.70
2019-04-29T09:03:12.236Z,45.28
2019-04-29T09:05:46.107Z,44.58
2019-04-29T09:08:16.078Z,45.05
2019-04-29T09:10:51.427Z,45.14
2019-04-29T09:13:21.954Z,47.33
2019-04-29T09:15:52.495Z,47.74
2019-04-29T09:18:24.000Z,48.14
2019-04-29T09:20:54.546Z,48.81
2019-04-29T09:23:26.799Z,49.24
2019-04-29T09:26:06.045Z,48.82
2019-04-29T09:28:36.586Z,50.16
2019-04-29T09:31:07.092Z,50.99
2019-04-29T09:33:37.550Z,51.17
2019-04-29T09:36:09.606Z,52.11
2019-04-29T09:38:41.194Z,52.49
2019-04-29T09:41:14.291Z,52.72
2019-04-29T09:43:59.311Z,52.95
2019-04-29T09:46:30.050Z,54.26
2019-04-29T09:49:01.831Z,55.73
2019-04-29T09:51:32.374Z,54.22
2019-04-29T09:54:03.004Z,55.37
2019-04-29T09:56:34.832Z,58.00
2019-04-29T09:59:24.552Z,60.84
2019-04-29T10:01:58.167Z,63.27
2019-04-29T10:04:36.274Z,66.11
2019-04-29T10:07:07.755Z,67.23
2019-04-29T10:09:56.040Z,70.30
2019-04-29T10:12:16.470Z,74.23
2019-04-29T10:14:47.230Z,74.35
2019-04-29T10:17:31.786Z,76.45
2019-04-29T10:20:19.158Z,76.74
2019-04-29T10:22:50.212Z,76.60
2019-04-29T10:25:21.814Z,76.31
2019-04-29T10:27:55.264Z,74.75
2019-04-29T10:30:31.228Z,76.47
2019-04-29T10:33:00.664Z,76.43
2019-04-29T10:35:31.254Z,76.70
2019-04-29T10:38:02.777Z,75.67
2019-04-29T10:40:43.273Z,77.97
2019-04-29T10:43:17.251Z,75.63
2019-04-29T10:45:50.534Z,74.70
2019-04-29T10:48:25.434Z,73.95
2019-04-29T10:50:58.462Z,74.56
2019-04-29T10:53:29.027Z,74.33
2019-04-29T10:56:01.031Z,74.52
2019-04-29T10:58:35.490Z,75.30
2019-04-29T11:01:12.510Z,71.41
2019-04-29T11:03:43.275Z,72.09
2019-04-29T11:06:16.251Z,71.19
2019-04-29T11:08:51.060Z,70.27
2019-04-29T11:11:26.777Z,70.15
2019-04-29T11:13:57.686Z,70.29
2019-04-29T11:16:45.342Z,70.56
2019-04-29T11:19:05.343Z,70.07
2019-04-29T11:21:38.813Z,70.87
2019-04-29T11:24:13.172Z,71.61
2019-04-29T11:26:52.478Z,70.27
2019-04-29T11:29:27.192Z,71.36
2019-04-29T11:31:56.741Z,71.37
2019-04-29T11:34:29.259Z,72.82
2019-04-29T11:37:00.808Z,72.90
2019-04-29T11:39:32.455Z,72.92
2019-04-29T11:42:03.009Z,73.89
2019-04-29T11:44:33.625Z,74.44
2019-04-29T11:47:04.193Z,75.13
2019-04-29T11:49:36.328Z,75.71
2019-04-29T11:52:09.586Z,75.06
2019-04-29T11:54:40.298Z,73.34
2019-04-29T11:57:12.345Z,74.42
2019-04-29T12:00:00.766Z,75.39
2019-04-29T12:02:46.396Z,75.04
2019-04-29T12:05:21.329Z,75.17
2019-04-29T12:07:52.933Z,75.97
2019-04-29T12:10:23.538Z,76.84
2019-04-29T12:12:54.621Z,76.52
2019-04-29T12:15:32.683Z,76.03
2019-04-29T12:18:14.838Z,76.14
2019-04-29T12:20:56.093Z,75.87
2019-04-29T12:23:27.578Z,75.04
2019-04-29T12:25:58.715Z,74.49
2019-04-29T12:28:30.376Z,74.93
2019-04-29T12:31:05.746Z,73.99
2019-04-29T12:33:40.210Z,74.06
2019-04-29T12:36:16.310Z,73.90
2019-04-29T12:38:55.128Z,74.11
2019-04-29T12:41:48.220Z,74.01
2019-04-29T12:44:10.170Z,74.71
2019-04-29T12:46:42.208Z,74.67
2019-04-29T12:49:13.753Z,75.16
2019-04-29T12:51:44.513Z,74.92
2019-04-29T12:54:15.109Z,75.45
2019-04-29T12:56:47.973Z,75.93
2019-04-29T12:59:17.747Z,76.38
2019-04-29T13:01:52.246Z,75.92
2019-04-29T13:04:28.120Z,75.73
2019-04-29T13:07:11.103Z,74.96
2019-04-29T13:09:57.324Z,74.90
2019-04-29T13:12:30.287Z,74.42
2019-04-29T13:15:03.171Z,73.94
2019-04-29T13:18:03.038Z,73.27
2019-04-29T13:20:25.781Z,74.54
2019-04-29T13:23:01.007Z,73.71
2019-04-29T13:25:29.844Z,73.29
2019-04-29T13:28:04.008Z,73.82
2019-04-29T13:30:32.559Z,73.55
2019-04-29T13:33:05.948Z,73.41
2019-04-29T13:35:35.243Z,73.02
2019-04-29T13:38:05.773Z,72.22
2019-04-29T13:40:38.931Z,72.02
2019-04-29T13:43:09.633Z,72.91
2019-04-29T13:45:42.960Z,73.34
2019-04-29T13:48:33.109Z,73.33
2019-04-29T13:51:05.229Z,73.99
2019-04-29T13:53:35.850Z,74.14
2019-04-29T13:56:11.654Z,74.12
2019-04-29T13:58:38.652Z,74.84
2019-04-29T14:01:23.948Z,74.72
2019-04-29T14:04:02.678Z,74.65
2019-04-29T14:06:34.447Z,75.15
2019-04-29T14:09:06.420Z,75.67
2019-04-29T14:11:38.479Z,75.48
2019-04-29T14:14:10.026Z,76.06
2019-04-29T14:16:43.133Z,76.17
2019-04-29T14:19:13.787Z,76.22
2019-04-29T14:21:44.352Z,76.29
2019-04-29T14:24:14.848Z,76.56
2019-04-29T14:26:47.872Z,76.71
2019-04-29T14:29:17.556Z,77.16
2019-04-29T14:31:49.644Z,77.00
2019-04-29T14:34:30.570Z,77.45
2019-04-29T14:37:18.768Z,77.67
2019-04-29T14:39:37.282Z,77.71
2019-04-29T14:42:30.176Z,78.10
2019-04-29T14:45:00.960Z,77.95
2019-04-29T14:47:36.092Z,77.80
2019-04-29T14:50:15.602Z,77.75
2019-04-29T14:52:44.878Z,77.57
2019-04-29T14:55:20.208Z,77.79
2019-04-29T14:57:49.082Z,77.99
2019-04-29T15:00:21.221Z,77.78
2019-04-29T15:02:55.829Z,77.89
2019-04-29T15:05:26.275Z,77.83
2019-04-29T15:07:56.721Z,78.40
2019-04-29T15:10:30.952Z,78.62
2019-04-29T15:13:19.337Z,78.65
2019-04-29T15:15:38.164Z,78.44
2019-04-29T15:18:46.136Z,78.96
2019-04-29T15:21:05.828Z,79.11
2019-04-29T15:23:34.020Z,79.38
2019-04-29T15:26:04.651Z,78.95
2019-04-29T15:28:51.723Z,79.35
2019-04-29T15:31:23.263Z,79.10
2019-04-29T15:33:53.831Z,79.21
2019-04-29T15:36:26.010Z,79.52
2019-04-29T15:39:09.044Z,79.53
2019-04-29T15:41:31.147Z,79.73
2019-04-29T15:44:08.701Z,79.38
2019-04-29T15:46:46.361Z,79.50
2019-04-29T15:49:08.726Z,79.97
2019-04-29T15:51:39.366Z,80.01
2019-04-29T15:54:14.353Z,80.27
2019-04-29T15:56:43.421Z,80.18
2019-04-29T15:59:16.177Z,80.37
2019-04-29T16:01:46.973Z,80.12
2019-04-29T16:04:20.936Z,80.17
2019-04-29T16:07:17.090Z,80.41
2019-04-29T16:09:54.470Z,80.35
2019-04-29T16:12:35.546Z,80.24
2019-04-29T16:15:10.120Z,80.44
2019-04-29T16:17:40.798Z,80.84
2019-04-29T16:20:11.386Z,80.97
2019-04-29T16:22:42.902Z,80.85
2019-04-29T16:25:13.375Z,81.34
2019-04-29T16:27:51.514Z,81.91
2019-04-29T16:30:18.907Z,81.46
2019-04-29T16:32:48.932Z,81.67
2019-04-29T16:35:23.671Z,81.71
2019-04-29T16:37:52.573Z,81.43
2019-04-29T16:40:24.228Z,81.62
2019-04-29T16:43:05.727Z,81.82
2019-04-29T16:45:51.563Z,81.97
2019-04-29T16:48:22.123Z,82.09
2019-04-29T16:50:52.759Z,82.13
2019-04-29T16:53:24.289Z,82.41
2019-04-29T16:55:55.471Z,82.44
2019-04-29T16:58:26.011Z,82.52
2019-04-29T17:00:58.363Z,82.48
2019-04-29T17:03:29.793Z,82.27
2019-04-29T17:06:00.329Z,82.51
2019-04-29T17:08:32.555Z,82.37
2019-04-29T17:11:04.626Z,82.55
2019-04-29T17:13:35.258Z,82.52
2019-04-29T17:16:07.374Z,82.47
2019-04-29T17:18:40.038Z,82.30
2019-04-29T17:21:10.642Z,82.02
2019-04-29T17:23:42.299Z,82.38
2019-04-29T17:26:13.051Z,82.50
2019-04-29T17:28:48.295Z,82.63
2019-04-29T17:31:37.271Z,82.45
2019-04-29T17:34:10.398Z,82.29
2019-04-29T17:36:41.007Z,82.42
2019-04-29T17:39:11.649Z,82.25
2019-04-29T17:41:43.230Z,82.50
2019-04-29T17:44:24.326Z,82.83
2019-04-29T17:47:06.985Z,82.83
2019-04-29T17:49:40.355Z,82.88
2019-04-29T17:52:15.814Z,83.00
2019-04-29T17:54:48.069Z,83.05
2019-04-29T17:57:28.633Z,82.72
2019-04-29T18:00:08.515Z,83.02
2019-04-29T18:02:57.298Z,83.24
2019-04-29T18:05:52.119Z,83.25
2019-04-29T18:08:09.763Z,83.45
2019-04-29T18:10:47.869Z,83.41
2019-04-29T18:13:23.670Z,83.17
2019-04-29T18:16:00.932Z,82.98
2019-04-29T18:18:27.974Z,83.33
2019-04-29T18:21:03.168Z,82.89
2019-04-29T18:23:51.541Z,82.63
2019-04-29T18:26:38.997Z,82.78
2019-04-29T18:29:10.568Z,82.83
2019-04-29T18:31:44.424Z,82.38
2019-04-29T18:34:15.273Z,82.35
2019-04-29T18:36:47.481Z,82.48
2019-04-29T18:39:20.076Z,82.28
2019-04-29T18:41:51.991Z,82.21
2019-04-29T18:44:22.674Z,82.53
2019-04-29T18:46:57.025Z,82.44
2019-04-29T18:49:26.117Z,82.46
2019-04-29T18:51:57.882Z,83.09
2019-04-29T18:54:29.157Z,83.08
2019-04-29T18:57:00.817Z,82.70
2019-04-29T18:59:35.007Z,82.57
2019-04-29T19:02:07.724Z,82.96
2019-04-29T19:04:41.408Z,83.35
2019-04-29T19:07:11.893Z,83.34
2019-04-29T19:09:42.370Z,83.43
2019-04-29T19:12:12.938Z,83.32
2019-04-29T19:14:47.659Z,83.38
2019-04-29T19:17:16.547Z,83.67
2019-04-29T19:19:47.298Z,83.62
2019-04-29T19:22:18.763Z,83.69
2019-04-29T19:24:49.243Z,83.76
2019-04-29T19:27:19.809Z,83.83
2019-04-29T19:29:50.588Z,84.12
2019-04-29T19:32:23.104Z,84.09
2019-04-29T19:34:54.983Z,84.10
2019-04-29T19:37:32.104Z,83.84
2019-04-29T19:39:59.647Z,84.03
2019-04-29T19:42:35.648Z,84.14
2019-04-29T19:45:06.426Z,84.33
2019-04-29T19:47:36.168Z,84.42
2019-04-29T19:50:10.314Z,84.31
2019-04-29T19:52:40.408Z,84.54
2019-04-29T19:55:10.921Z,84.21
2019-04-29T19:57:46.579Z,84.51
2019-04-29T20:00:17.251Z,84.50
2019-04-29T20:02:50.344Z,84.43
2019-04-29T20:05:34.059Z,84.54
2019-04-29T20:08:03.331Z,84.58
2019-04-29T20:10:42.582Z,84.53
2019-04-29T20:13:07.988Z,84.76
2019-04-29T20:15:45.183Z,84.86
2019-04-29T20:18:34.527Z,84.87
2019-04-29T20:21:08.619Z,84.91
2019-04-29T20:23:36.162Z,85.02
2019-04-29T20:26:13.795Z,84.76
2019-04-29T20:28:37.346Z,84.47
2019-04-29T20:31:16.233Z,84.43
2019-04-29T20:33:42.181Z,84.51
2019-04-29T20:36:12.567Z,84.17
2019-04-29T20:38:45.486Z,84.13
2019-04-29T20:41:19.599Z,84.27
2019-04-29T20:43:48.817Z,84.17
2019-04-29T20:46:19.562Z,83.97
2019-04-29T20:48:54.358Z,83.69
2019-04-29T20:51:23.200Z,84.13
2019-04-29T20:53:59.213Z,84.24
2019-04-29T20:56:35.026Z,84.16
2019-04-29T20:59:09.422Z,84.36
2019-04-29T21:01:43.153Z,84.24
2019-04-29T21:04:09.386Z,84.76
2019-04-29T21:06:51.338Z,84.62
2019-04-29T21:09:14.951Z,84.59
2019-04-29T21:11:56.627Z,84.46
2019-04-29T21:14:33.991Z,84.42
2019-04-29T21:17:06.659Z,84.59
2019-04-29T21:19:34.426Z,84.84
2019-04-29T21:22:05.264Z,84.57
2019-04-29T21:24:35.953Z,84.43
2019-04-29T21:27:06.445Z,84.61
2019-04-29T21:29:37.345Z,84.42
2019-04-29T21:32:07.829Z,84.99
2019-04-29T21:34:39.889Z,85.43
2019-04-29T21:37:12.875Z,85.62
2019-04-29T21:39:46.697Z,85.50
2019-04-29T21:42:21.256Z,85.94
2019-04-29T21:44:51.861Z,86.21
2019-04-29T21:47:25.315Z,86.71
2019-04-29T21:49:57.742Z,86.55
2019-04-29T21:52:28.415Z,86.80
2019-04-29T21:54:59.098Z,87.14
2019-04-29T21:57:31.119Z,87.46
2019-04-29T22:00:01.794Z,87.61
2019-04-29T22:02:33.406Z,87.84
2019-04-29T22:05:09.557Z,88.04
2019-04-29T22:07:45.966Z,88.11
2019-04-29T22:10:15.223Z,87.97
2019-04-29T22:12:45.929Z,88.05
2019-04-29T22:15:16.520Z,88.37
2019-04-29T22:17:56.249Z,88.18
2019-04-29T22:20:19.343Z,88.80
2019-04-29T22:22:49.865Z,88.59
2019-04-29T22:25:20.581Z,88.86
2019-04-29T22:27:52.304Z,88.64
2019-04-29T22:30:23.991Z,88.43
2019-04-29T22:32:58.110Z,88.09
2019-04-29T22:35:27.727Z,88.11
2019-04-29T22:37:59.627Z,88.37
2019-04-29T22:40:34.155Z,88.54
2019-04-29T22:43:06.082Z,88.55
2019-04-29T22:45:36.225Z,88.51
2019-04-29T22:48:14.924Z,88.46
2019-04-29T22:50:40.214Z,88.59
2019-04-29T22:53:10.894Z,88.71
2019-04-29T22:55:42.393Z,88.33
2019-04-29T22:58:15.134Z,88.58
2019-04-29T23:00:45.775Z,88.45
2019-04-29T23:03:17.307Z,88.52
2019-04-29T23:05:47.769Z,88.46
2019-04-29T23:08:18.407Z,88.41
2019-04-29T23:10:48.898Z,88.59
2019-04-29T23:13:19.496Z,88.56
2019-04-29T23:15:53.804Z,88.67
2019-04-29T23:18:27.108Z,88.77
2019-04-29T23:21:16.476Z,88.79
2019-04-29T23:24:13.153Z,88.90
2019-04-29T23:26:42.246Z,88.80
2019-04-29T23:29:12.648Z,88.93
2019-04-29T23:31:43.205Z,88.76
2019-04-29T23:34:15.568Z,88.98
2019-04-29T23:36:48.865Z,88.96
2019-04-29T23:39:18.151Z,88.70
2019-04-29T23:41:48.776Z,88.78
2019-04-29T23:44:21.279Z,89.06
2019-04-29T23:46:51.852Z,89.21
2019-04-29T23:49:22.299Z,88.73
2019-04-29T23:51:52.703Z,88.89
2019-04-29T23:54:24.864Z,88.84
2019-04-29T23:57:00.165Z,88.86
2019-04-29T23:59:32.460Z,88.87
